Time;durP1;ratioP1;P1;durP2;ratioP2;P2;SDS_P1;SDS_P2;PMS_P1;PMS_P2;Temp;Humidity;BMP_temperature;BMP_pressure;BME280_temperature;BME280_humidity;BME280_pressure;Samples;Min_cycle;Max_cycle;Signal;HPM_P1;HPM_P2
2021/07/16 00:02:15;;;;;;;0.43;0.43;;;;;;;17.28;71.87;98883.59;5109556;28;42468;-77
2021/07/16 00:04:44;;;;;;;0.70;0.60;;;;;;;17.23;72.12;98878.66;5091537;28;38913;-78
2021/07/16 00:07:11;;;;;;;0.40;0.40;;;;;;;17.18;72.13;98877.38;5109847;28;41627;-79
2021/07/16 00:09:39;;;;;;;0.50;0.50;;;;;;;17.14;72.28;98881.31;5083151;27;41782;-77
2021/07/16 00:12:07;;;;;;;0.50;0.50;;;;;;;17.10;71.99;98880.72;5111030;27;42099;-78
2021/07/16 00:14:35;;;;;;;0.50;0.50;;;;;;;17.06;72.17;98883.84;5129876;27;41909;-78
2021/07/16 00:17:03;;;;;;;0.50;0.50;;;;;;;17.03;72.20;98884.94;5090540;28;41006;-78
2021/07/16 00:19:30;;;;;;;0.60;0.60;;;;;;;16.95;71.92;98883.91;5074599;28;42036;-77
2021/07/16 00:22:00;;;;;;;0.20;0.20;;;;;;;16.92;72.12;98882.38;5074158;28;42359;-78
2021/07/16 00:24:28;;;;;;;0.53;0.40;;;;;;;16.93;71.99;98889.41;5091484;28;40020;-78
2021/07/16 00:27:05;;;;;;;0.60;0.60;;;;;;;16.95;71.95;98886.59;5075690;28;40674;-78
2021/07/16 00:29:33;;;;;;;0.43;0.43;;;;;;;16.91;72.16;98880.69;5109456;28;43033;-78
2021/07/16 00:32:01;;;;;;;0.40;0.40;;;;;;;16.93;72.14;98893.91;5109083;27;42395;-78
2021/07/16 00:34:28;;;;;;;0.40;0.40;;;;;;;16.98;72.20;98889.00;5112976;27;40682;-79
2021/07/16 00:36:56;;;;;;;0.40;0.40;;;;;;;17.00;71.97;98897.75;5114896;27;42483;-78
2021/07/16 00:39:25;;;;;;;0.40;0.40;;;;;;;17.01;71.90;98900.28;5133302;27;43945;-78
2021/07/16 00:41:59;;;;;;;0.40;0.40;;;;;;;17.01;72.06;98894.09;5115709;27;43228;-77
2021/07/16 00:44:27;;;;;;;0.43;0.43;;;;;;;17.01;71.79;98894.09;5094003;28;39952;-79
2021/07/16 00:46:57;;;;;;;0.47;0.47;;;;;;;17.01;71.96;98891.41;5077588;28;41987;-78
2021/07/16 00:49:25;;;;;;;0.40;0.40;;;;;;;16.98;71.88;98897.88;5076872;28;41973;-77
2021/07/16 00:51:52;;;;;;;0.40;0.40;;;;;;;16.94;72.18;98899.09;5094293;27;42306;-78
2021/07/16 00:54:20;;;;;;;0.93;0.40;;;;;;;16.76;72.50;98877.50;5113918;27;39406;-77
2021/07/16 00:56:49;;;;;;;0.57;0.57;;;;;;;16.84;72.34;98896.41;5097771;27;40899;-78
2021/07/16 00:59:17;;;;;;;0.40;0.40;;;;;;;16.81;72.46;98904.69;5111224;28;41914;-78
2021/07/16 01:01:47;;;;;;;0.43;0.43;;;;;;;16.77;72.59;98894.41;5075676;28;41388;-77
2021/07/16 01:04:16;;;;;;;0.50;0.50;;;;;;;16.73;72.78;98895.66;5112500;28;41068;-78
2021/07/16 01:06:43;;;;;;;0.40;0.40;;;;;;;16.47;72.84;98871.13;5114871;27;41153;-78
2021/07/16 01:09:11;;;;;;;0.40;0.40;;;;;;;16.65;72.86;98901.69;5098526;27;42088;-78
2021/07/16 01:11:39;;;;;;;0.50;0.50;;;;;;;16.54;72.89;98885.69;5114476;27;41450;-77
2021/07/16 01:14:10;;;;;;;0.50;0.50;;;;;;;16.56;72.85;98880.22;5114648;27;39370;-78
2021/07/16 01:16:37;;;;;;;0.57;0.50;;;;;;;16.26;72.72;98835.56;5097741;27;40749;-78
2021/07/16 01:19:06;;;;;;;0.33;0.33;;;;;;;16.48;73.00;98886.19;5114723;27;43198;-77
2021/07/16 01:21:36;;;;;;;0.40;0.40;;;;;;;16.44;73.24;98882.13;5113836;27;41254;-77
2021/07/16 01:24:07;;;;;;;0.50;0.50;;;;;;;16.40;73.03;98886.03;5097417;27;38883;-77
2021/07/16 01:26:36;;;;;;;0.40;0.40;;;;;;;16.35;73.06;98883.72;5096789;27;40602;-78
2021/07/16 01:29:04;;;;;;;0.60;0.60;;;;;;;16.31;73.57;98894.84;5097417;27;41865;-79
2021/07/16 01:31:32;;;;;;;0.70;0.70;;;;;;;16.27;74.09;98885.38;5114503;27;42552;-76
2021/07/16 01:34:00;;;;;;;0.70;0.70;;;;;;;16.28;74.18;98889.75;5114158;27;40120;-78
2021/07/16 01:36:28;;;;;;;0.50;0.50;;;;;;;16.26;73.99;98897.03;5096946;27;40648;-78
2021/07/16 01:38:55;;;;;;;0.50;0.50;;;;;;;16.21;73.82;98885.88;5114634;27;41960;-78
2021/07/16 01:41:24;;;;;;;0.50;0.50;;;;;;;16.16;73.61;98889.81;5112324;27;41719;-78
2021/07/16 01:43:52;;;;;;;0.43;0.43;;;;;;;16.16;73.71;98895.16;5113646;27;40398;-79
2021/07/16 01:46:20;;;;;;;0.53;0.53;;;;;;;16.02;73.68;98884.78;5095892;27;42137;-78
2021/07/16 01:48:48;;;;;;;0.60;0.57;;;;;;;16.09;73.84;98893.97;5113830;27;43154;-77
2021/07/16 01:51:15;;;;;;;0.50;0.50;;;;;;;16.07;73.84;98890.56;5096309;27;42408;-78
2021/07/16 01:53:43;;;;;;;0.50;0.50;;;;;;;16.06;73.63;98891.56;5096429;27;42875;-78
2021/07/16 01:56:11;;;;;;;1.03;0.50;;;;;;;16.04;73.98;98896.19;5112450;27;41933;-79
2021/07/16 01:58:40;;;;;;;0.53;0.50;;;;;;;16.02;73.80;98902.63;5113845;27;43539;-78
2021/07/16 02:01:14;;;;;;;0.70;0.60;;;;;;;16.01;73.92;98901.78;5096593;27;40877;-79
2021/07/16 02:03:43;;;;;;;0.30;0.30;;;;;;;15.98;73.94;98904.72;5096777;27;38986;-79
2021/07/16 02:06:11;;;;;;;0.70;0.70;;;;;;;15.95;73.74;98902.28;5113168;27;41818;-78
2021/07/16 02:08:40;;;;;;;0.40;0.40;;;;;;;15.94;73.92;98902.44;5096312;27;41837;-79
2021/07/16 02:11:08;;;;;;;0.30;0.30;;;;;;;15.92;73.77;98897.22;5113886;27;42361;-79
2021/07/16 02:13:36;;;;;;;0.80;0.80;;;;;;;15.90;74.34;98899.16;5131783;27;41012;-77
2021/07/16 02:16:05;;;;;;;0.40;0.40;;;;;;;15.89;74.32;98897.47;5130811;27;41768;-78
2021/07/16 02:18:34;;;;;;;0.50;0.50;;;;;;;15.88;74.42;98895.78;5095541;27;42010;-78
2021/07/16 02:21:01;;;;;;;0.63;0.63;;;;;;;15.90;74.16;98903.66;5112895;27;42721;-77
2021/07/16 02:23:30;;;;;;;0.40;0.40;;;;;;;15.78;74.13;98894.84;5095548;27;39930;-77
2021/07/16 02:25:59;;;;;;;0.80;0.73;;;;;;;15.88;74.21;98917.13;5109451;28;42053;-79
2021/07/16 02:28:32;;;;;;;0.50;0.50;;;;;;;15.87;74.45;98915.44;5092986;28;42994;-79
2021/07/16 02:31:01;;;;;;;1.10;1.10;;;;;;;15.84;74.50;98905.00;5092274;28;42787;-79
2021/07/16 02:33:31;;;;;;;1.00;0.83;;;;;;;15.79;74.51;98909.91;5115178;27;40860;-79
2021/07/16 02:35:59;;;;;;;0.83;0.60;;;;;;;15.72;74.70;98896.19;5096680;27;40703;-79
2021/07/16 02:38:26;;;;;;;0.70;0.70;;;;;;;15.74;74.54;98896.91;5094779;27;41801;-77
2021/07/16 02:40:54;;;;;;;0.80;0.60;;;;;;;15.74;74.75;98893.41;5095372;27;41535;-79
2021/07/16 02:43:23;;;;;;;1.03;0.80;;;;;;;15.79;74.77;98908.09;5112153;27;39896;-77
2021/07/16 02:45:52;;;;;;;1.03;0.93;;;;;;;15.84;75.15;98907.69;5109895;28;41635;-79
2021/07/16 02:48:19;;;;;;;0.60;0.60;;;;;;;15.88;74.81;98914.47;5092693;28;43679;-77
2021/07/16 02:50:49;;;;;;;0.77;0.47;;;;;;;15.86;75.03;98903.06;5092188;28;41179;-79
2021/07/16 02:53:20;;;;;;;0.73;0.50;;;;;;;15.97;75.85;98916.38;5101630;27;38893;-77
2021/07/16 02:55:49;;;;;;;0.67;0.57;;;;;;;16.03;76.30;98920.34;5095670;27;40528;-79
2021/07/16 02:58:16;;;;;;;0.63;0.63;;;;;;;16.09;76.47;98917.16;5095113;27;41910;-79
2021/07/16 03:00:44;;;;;;;1.73;1.10;;;;;;;16.16;76.31;98924.56;5094027;27;41551;-78
2021/07/16 03:03:12;;;;;;;0.80;0.80;;;;;;;16.00;77.17;98886.72;5095957;27;40619;-77
2021/07/16 03:05:39;;;;;;;0.40;0.40;;;;;;;16.29;76.95;98921.69;5112823;27;41904;-79
2021/07/16 03:08:10;;;;;;;0.67;0.63;;;;;;;16.36;76.62;98917.50;5095382;27;41915;-79
2021/07/16 03:10:39;;;;;;;0.50;0.50;;;;;;;16.43;76.62;98926.72;5095824;27;41259;-77
2021/07/16 03:13:12;;;;;;;0.83;0.83;;;;;;;16.52;76.80;98927.75;5131603;27;40242;-78
2021/07/16 03:15:39;;;;;;;1.17;0.90;;;;;;;16.51;77.37;98905.50;5130099;27;41815;-76
2021/07/16 03:18:08;;;;;;;1.20;1.03;;;;;;;16.60;77.69;98917.22;5113052;27;43790;-78
2021/07/16 03:20:38;;;;;;;0.50;0.50;;;;;;;16.63;76.99;98918.81;5131276;27;43261;-80
2021/07/16 03:23:08;;;;;;;0.60;0.60;;;;;;;16.61;77.20;98923.41;5096123;27;39139;-77
2021/07/16 03:25:36;;;;;;;0.60;0.60;;;;;;;16.58;77.03;98919.19;5095423;27;40774;-78
2021/07/16 03:28:04;;;;;;;0.70;0.70;;;;;;;16.62;77.07;98927.78;5095544;27;43324;-78
2021/07/16 03:30:33;;;;;;;0.80;0.80;;;;;;;16.58;77.04;98919.19;5094598;27;42169;-79
2021/07/16 03:33:01;;;;;;;0.60;0.60;;;;;;;16.65;77.56;98933.75;5108299;28;41692;-79
2021/07/16 03:35:29;;;;;;;0.70;0.70;;;;;;;16.61;77.28;98942.13;5091692;28;41741;-78
2021/07/16 03:37:56;;;;;;;0.50;0.50;;;;;;;16.57;77.55;98944.22;5091899;28;42929;-77
2021/07/16 03:40:29;;;;;;;1.90;1.00;;;;;;;16.58;77.35;98947.75;5091807;28;42596;-78
2021/07/16 03:42:57;;;;;;;0.80;0.70;;;;;;;16.62;77.73;98951.84;5106120;27;41019;-78
2021/07/16 03:45:26;;;;;;;0.60;0.60;;;;;;;16.65;77.43;98957.81;5130054;27;42091;-76
2021/07/16 03:47:54;;;;;;;0.90;0.73;;;;;;;16.67;77.67;98963.91;5094850;27;41786;-78
2021/07/16 03:50:23;;;;;;;0.70;0.70;;;;;;;16.68;77.57;98954.06;5111904;27;41248;-79
2021/07/16 03:52:54;;;;;;;0.63;0.40;;;;;;;16.69;77.33;98961.91;5094309;27;39018;-79
2021/07/16 03:55:22;;;;;;;0.53;0.53;;;;;;;16.68;77.42;98962.06;5094886;27;41900;-79
2021/07/16 03:57:52;;;;;;;0.60;0.60;;;;;;;16.64;77.47;98952.59;5130272;27;42892;-79
2021/07/16 04:00:25;;;;;;;0.80;0.80;;;;;;;16.67;77.32;98957.69;5111061;27;41281;-77
2021/07/16 04:02:53;;;;;;;1.33;1.23;;;;;;;16.57;77.37;98946.06;5131203;27;39961;-76
2021/07/16 04:05:21;;;;;;;0.80;0.80;;;;;;;16.66;77.40;98967.56;5111197;27;42560;-79
2021/07/16 04:07:50;;;;;;;0.70;0.70;;;;;;;16.59;77.04;98960.97;5111069;27;42959;-79
2021/07/16 04:10:24;;;;;;;0.87;0.73;;;;;;;16.66;77.25;98972.91;5111327;27;42239;-80
2021/07/16 04:12:56;;;;;;;0.60;0.60;;;;;;;16.66;77.21;98972.06;5111895;27;40314;-77
2021/07/16 04:15:25;;;;;;;0.43;0.43;;;;;;;16.66;77.02;98972.06;5111733;27;42179;-80
2021/07/16 04:17:54;;;;;;;0.67;0.67;;;;;;;16.69;77.27;98980.63;5111785;27;43038;-79
2021/07/16 04:20:21;;;;;;;0.60;0.60;;;;;;;16.72;76.92;98977.72;5093909;27;42773;-77
2021/07/16 04:22:49;;;;;;;0.43;0.43;;;;;;;16.74;76.83;98981.09;5112467;27;40657;-79
2021/07/16 04:25:18;;;;;;;1.00;0.70;;;;;;;16.75;77.26;98987.28;5112044;27;42763;-80
2021/07/16 04:27:47;;;;;;;1.13;0.90;;;;;;;16.79;77.26;98984.25;5112758;27;42697;-79
2021/07/16 04:30:19;;;;;;;0.73;0.73;;;;;;;16.80;77.20;98969.88;5129890;27;42318;-77
2021/07/16 04:32:48;;;;;;;0.73;0.73;;;;;;;16.79;76.65;98962.00;5111674;27;39558;-77
2021/07/16 04:35:16;;;;;;;0.60;0.57;;;;;;;16.99;76.96;98978.97;5090786;28;41092;-79
2021/07/16 04:37:44;;;;;;;2.00;0.53;;;;;;;17.06;76.86;98975.63;5091170;28;43435;-79
2021/07/16 04:40:15;;;;;;;0.60;0.60;;;;;;;17.13;76.83;98970.59;5091300;28;41147;-79
2021/07/16 04:42:48;;;;;;;0.70;0.70;;;;;;;17.28;76.77;98977.28;5109572;27;40074;-78
2021/07/16 04:45:18;;;;;;;0.80;0.80;;;;;;;17.38;76.62;98978.16;5093599;27;40963;-79
2021/07/16 04:47:46;;;;;;;0.80;0.63;;;;;;;17.47;76.87;98980.03;5149682;27;42800;-76
2021/07/16 04:50:15;;;;;;;0.70;0.70;;;;;;;17.53;76.39;98971.47;5132524;27;43251;-79
2021/07/16 04:52:45;;;;;;;1.03;0.60;;;;;;;17.65;76.71;98979.41;5122536;27;39878;-77
2021/07/16 04:55:14;;;;;;;0.73;0.73;;;;;;;17.75;76.35;98982.94;5094283;27;40848;-79
2021/07/16 04:57:42;;;;;;;0.93;0.83;;;;;;;17.88;76.10;98980.88;5112176;27;42812;-80
2021/07/16 05:00:12;;;;;;;0.53;0.53;;;;;;;18.04;76.13;98980.31;5110270;27;41561;-77
2021/07/16 05:02:41;;;;;;;0.80;0.80;;;;;;;18.18;75.53;98986.09;5111358;27;41086;-78
2021/07/16 05:05:10;;;;;;;1.10;0.80;;;;;;;18.28;75.31;98976.25;5110222;27;40747;-77
2021/07/16 05:07:38;;;;;;;0.90;0.90;;;;;;;18.36;74.91;98977.34;5110921;27;42563;-76
2021/07/16 05:10:08;;;;;;;0.70;0.70;;;;;;;18.49;74.66;98994.00;5093989;27;42100;-80
2021/07/16 05:12:35;;;;;;;0.63;0.63;;;;;;;18.56;74.51;98997.78;5093384;27;41120;-77
2021/07/16 05:15:12;;;;;;;1.43;1.10;;;;;;;18.57;74.24;98975.34;5098157;28;40663;-85
2021/07/16 05:17:56;;;;;;;0.60;0.60;;;;;;;18.97;74.22;98997.47;5107313;28;42689;-84
2021/07/16 05:23:11;;;;;;;1.30;1.00;;;;;;;19.23;73.37;98988.78;5095102;28;39827;-81
2021/07/16 05:30:02;;;;;;;1.03;0.80;;;;;;;19.26;72.57;98945.53;5058443;28;42098;-85
2021/07/16 05:32:32;;;;;;;0.80;0.80;;;;;;;19.63;72.31;98986.66;5020050;28;41646;-83
2021/07/16 05:35:03;;;;;;;0.90;0.90;;;;;;;19.65;72.42;98998.09;4995870;28;39230;-82
2021/07/16 05:37:30;;;;;;;1.43;1.10;;;;;;;19.60;71.98;98997.69;4996147;28;41696;-83
2021/07/16 05:39:58;;;;;;;0.97;0.83;;;;;;;19.58;71.74;99007.72;5025300;28;41639;-83
2021/07/16 05:42:26;;;;;;;1.47;1.20;;;;;;;19.52;72.17;99010.19;5032940;28;42380;-83
2021/07/16 05:45:09;;;;;;;1.40;1.30;;;;;;;19.38;72.09;98998.06;5031565;28;39102;-87
2021/07/16 05:47:37;;;;;;;1.10;1.00;;;;;;;19.28;72.41;98981.13;5014097;28;42806;-87
2021/07/16 05:53:07;;;;;;;1.27;1.17;;;;;;;19.48;72.45;99003.38;5015303;28;42148;-82
2021/07/16 05:55:36;;;;;;;0.80;0.80;;;;;;;19.38;72.40;98998.06;5015532;28;39047;-84
2021/07/16 05:58:28;;;;;;;0.80;0.80;;;;;;;19.29;72.32;99004.28;5016145;28;40840;-83
2021/07/16 06:01:14;;;;;;;1.20;1.10;;;;;;;19.21;72.00;99001.50;5037660;28;41679;-82
2021/07/16 06:03:43;;;;;;;0.60;0.60;;;;;;;19.34;72.38;99013.59;5080195;28;41241;-85
2021/07/16 06:06:12;;;;;;;1.10;1.00;;;;;;;19.47;72.24;99021.31;5076562;28;40245;-82
2021/07/16 06:08:40;;;;;;;1.03;0.87;;;;;;;19.48;72.01;99014.13;5095625;27;42726;-82
2021/07/16 06:11:07;;;;;;;1.87;0.93;;;;;;;19.63;72.64;99026.94;5113161;27;42350;-83
2021/07/16 06:27:31;;;;;;;1.97;0.90;;;;;;;20.70;69.08;99051.28;5129849;27;43546;-85
2021/07/16 06:29:59;;;;;;;0.83;0.77;;;;;;;20.75;68.71;99047.16;5095466;27;38918;-83
2021/07/16 06:32:27;;;;;;;1.20;1.10;;;;;;;21.10;68.60;99065.09;5113511;27;41520;-84
2021/07/16 06:34:54;;;;;;;1.73;1.10;;;;;;;21.33;67.67;99053.81;5095420;27;42198;-84
2021/07/16 06:37:22;;;;;;;1.33;1.13;;;;;;;21.58;67.31;99070.97;5096868;27;41631;-85
2021/07/16 06:40:11;;;;;;;1.10;1.00;;;;;;;21.71;66.89;99049.81;5095901;27;39042;-86
2021/07/16 07:00:52;;;;;;;;;;;;;;;;;;;;;
2021/07/16 07:06:18;;;;;;;0.70;0.70;;;;;;;23.23;62.30;99065.63;5115780;27;40737;-91
2021/07/16 07:09:18;;;;;;;1.13;1.10;;;;;;;23.05;61.20;99037.94;5099582;27;41629;-89
2021/07/16 07:11:46;;;;;;;0.80;0.80;;;;;;;23.40;61.46;99079.94;5088717;27;43730;-83
2021/07/16 07:14:13;;;;;;;1.00;0.90;;;;;;;23.35;61.17;99060.69;5095827;27;40089;-84
2021/07/16 07:17:18;;;;;;;0.50;0.50;;;;;;;23.37;61.37;99040.56;5098162;27;41704;-89
2021/07/16 07:19:50;;;;;;;0.70;0.70;;;;;;;23.70;61.26;99076.53;5098112;27;42662;-84
2021/07/16 07:22:18;;;;;;;0.70;0.70;;;;;;;23.83;61.35;99086.78;5113117;27;41205;-83
2021/07/16 07:24:57;;;;;;;0.60;0.60;;;;;;;23.78;61.84;99076.47;5097717;27;38872;-86
2021/07/16 07:27:24;;;;;;;0.70;0.60;;;;;;;23.84;60.90;99083.91;5095532;27;40830;-87
2021/07/16 07:29:52;;;;;;;1.07;1.00;;;;;;;23.95;61.21;99058.34;5095772;27;42243;-83
2021/07/16 07:32:21;;;;;;;0.70;0.60;;;;;;;24.37;59.60;99047.13;5095791;27;41981;-82
2021/07/16 07:35:14;;;;;;;0.57;0.57;;;;;;;25.56;56.90;99093.41;5098058;27;38670;-85
2021/07/16 07:38:41;;;;;;;;;;;;;;;;;;;;;
2021/07/16 07:42:46;;;;;;;0.60;0.60;;;;;;;29.79;46.47;99135.44;5101569;27;42974;-84
2021/07/16 07:45:43;;;;;;;;;;;;;;;;;;;;;
2021/07/16 07:48:16;;;;;;;0.60;0.60;;;;;;;32.16;40.55;99158.66;5057199;28;39289;-86
2021/07/16 07:50:49;;;;;;;0.63;0.63;;;;;;;32.70;40.78;99154.25;5084444;28;40927;-86
2021/07/16 07:53:17;;;;;;;0.53;0.53;;;;;;;32.88;39.15;99158.91;5053547;28;42373;-86
2021/07/16 07:55:52;;;;;;;1.50;1.10;;;;;;;32.96;39.21;99148.44;5052601;28;41970;-88
2021/07/16 07:58:20;;;;;;;0.57;0.57;;;;;;;33.32;38.77;99142.00;5053934;28;40195;-84
2021/07/16 08:00:48;;;;;;;0.73;0.70;;;;;;;33.28;38.79;99142.69;5053787;28;42574;-83
2021/07/16 08:03:25;;;;;;;0.63;0.60;;;;;;;33.38;38.69;99129.25;5053815;28;42566;-88
2021/07/16 08:13:17;;;;;;;0.60;0.60;;;;;;;31.49;40.30;99157.63;5054434;28;41381;-87
2021/07/16 08:15:54;;;;;;;0.50;0.50;;;;;;;30.89;42.44;99126.25;5062044;27;42026;-86
2021/07/16 08:18:45;;;;;;;0.43;0.43;;;;;;;30.42;42.93;99135.69;5112603;27;41250;-85
2021/07/16 08:21:12;;;;;;;0.50;0.50;;;;;;;29.89;43.96;99138.56;5095269;27;39004;-86
2021/07/16 08:23:40;;;;;;;0.53;0.53;;;;;;;29.35;44.55;99134.16;5094640;27;41631;-84
2021/07/16 08:26:13;;;;;;;0.43;0.43;;;;;;;28.87;45.24;99120.69;5094105;27;42757;-84
2021/07/16 08:28:50;;;;;;;0.60;0.60;;;;;;;28.99;45.64;99136.44;5094550;27;43583;-88
2021/07/16 08:31:17;;;;;;;0.63;0.60;;;;;;;29.06;45.50;99140.84;5093728;27;39969;-82
2021/07/16 08:33:45;;;;;;;0.80;0.80;;;;;;;29.06;45.98;99151.75;5111088;27;42034;-81
2021/07/16 08:36:13;;;;;;;0.60;0.60;;;;;;;28.94;46.88;99143.34;5111811;27;42894;-81
2021/07/16 08:38:40;;;;;;;0.50;0.50;;;;;;;29.08;46.15;99127.84;5093564;27;41997;-80
2021/07/16 08:41:10;;;;;;;0.53;0.53;;;;;;;30.18;43.62;99162.69;5094615;27;40072;-81
2021/07/16 08:43:43;;;;;;;0.60;0.60;;;;;;;31.62;42.22;99167.63;5111546;27;40991;-79
2021/07/16 08:46:12;;;;;;;0.60;0.60;;;;;;;34.00;38.75;99176.38;5094014;27;42869;-81
2021/07/16 08:48:40;;;;;;;0.80;0.80;;;;;;;36.57;34.67;99207.09;5129361;27;42500;-83
2021/07/16 08:51:10;;;;;;;0.63;0.63;;;;;;;38.32;30.63;99229.63;5111882;27;39999;-83
2021/07/16 08:53:37;;;;;;;0.60;0.60;;;;;;;39.78;28.28;99245.13;5130020;27;42663;-77
2021/07/16 08:56:06;;;;;;;0.70;0.70;;;;;;;41.16;27.15;99245.72;5097459;27;42085;-79
2021/07/16 08:58:34;;;;;;;1.27;1.05;;;;;;;41.83;26.94;99227.47;5113229;27;41259;-80
2021/07/16 09:01:03;;;;;;;0.50;0.50;;;;;;;41.85;26.84;99236.34;5142034;27;40698;-81
2021/07/16 09:03:32;;;;;;;0.47;0.47;;;;;;;41.18;26.26;99235.13;5130454;27;41109;-83
2021/07/16 09:06:01;;;;;;;0.57;0.57;;;;;;;40.16;26.64;99232.66;5130137;27;42104;-83
2021/07/16 09:08:29;;;;;;;0.50;0.50;;;;;;;39.42;28.42;99216.56;5136135;27;42417;-83
2021/07/16 09:11:00;;;;;;;0.50;0.50;;;;;;;39.39;29.06;99205.97;5137136;27;38721;-79
2021/07/16 09:13:29;;;;;;;0.50;0.50;;;;;;;38.92;29.55;99197.81;5135132;27;40970;-80
2021/07/16 09:15:59;;;;;;;0.60;0.60;;;;;;;38.47;29.85;99199.25;5115984;28;43215;-81
2021/07/16 09:18:30;;;;;;;0.70;0.70;;;;;;;38.83;28.79;99207.72;5101163;28;42380;-82
2021/07/16 09:21:10;;;;;;;0.70;0.70;;;;;;;39.20;27.84;99215.91;5095366;28;40423;-81
2021/07/16 09:23:40;;;;;;;0.70;0.70;;;;;;;39.52;27.87;99209.34;5106600;27;42035;-81
2021/07/16 09:26:11;;;;;;;0.80;0.80;;;;;;;39.27;27.57;99213.72;5114849;27;41739;-80
2021/07/16 09:28:40;;;;;;;0.73;0.73;;;;;;;38.15;29.06;99193.00;5115767;27;42769;-82
2021/07/16 09:31:15;;;;;;;0.57;0.57;;;;;;;38.46;28.94;99196.75;5097880;27;38941;-81
2021/07/16 09:34:19;;;;;;;0.73;0.60;;;;;;;38.20;28.98;99175.59;5115278;27;42142;-88
2021/07/16 09:36:53;;;;;;;0.43;0.43;;;;;;;38.19;28.96;99174.75;5077382;28;41801;-86
2021/07/16 09:39:29;;;;;;;0.50;0.50;;;;;;;38.40;27.74;99198.66;5083564;27;43171;-89
2021/07/16 09:46:38;;;;;;;0.63;0.63;;;;;;;35.68;33.48;99106.19;5088347;28;42761;-87
2021/07/16 09:50:03;;;;;;;0.50;0.50;;;;;;;35.89;31.59;99171.59;5072471;28;43447;-85
2021/07/16 09:52:34;;;;;;;0.67;0.67;;;;;;;36.36;31.71;99161.00;5075749;28;41236;-83
2021/07/16 09:55:18;;;;;;;0.60;0.60;;;;;;;37.94;29.33;99175.41;5093270;27;39791;-84
2021/07/16 09:57:55;;;;;;;1.00;1.00;;;;;;;38.65;27.62;99195.22;5097135;27;41564;-85
2021/07/16 10:00:36;;;;;;;0.70;0.70;;;;;;;40.34;26.73;99197.09;5097025;27;42864;-89
2021/07/16 10:03:20;;;;;;;0.67;0.67;;;;;;;39.28;27.21;99193.22;5096264;27;41453;-85
2021/07/16 15:14:45;;;;;;;0.90;0.90;;;;;;;35.31;32.03;99109.47;4928861;28;42175;-83
2021/07/16 15:21:38;;;;;;;0.93;0.93;;;;;;;34.64;33.78;99020.41;5122065;27;42091;-82
2021/07/16 15:57:02;;;;;;;1.20;1.10;;;;;;;31.30;40.25;99060.06;4853298;29;41931;-82
2021/07/16 15:59:34;;;;;;;1.50;1.40;;;;;;;30.91;41.42;99037.41;4912223;29;41759;-83
2021/07/16 16:02:02;;;;;;;1.33;1.23;;;;;;;30.54;42.00;99020.00;4913983;29;39143;-83
2021/07/16 16:04:29;;;;;;;1.47;1.37;;;;;;;30.48;42.68;99063.75;5084907;27;42024;-82
2021/07/16 16:06:57;;;;;;;1.67;1.57;;;;;;;30.13;43.79;99050.50;5134092;27;42590;-83
2021/07/16 16:09:26;;;;;;;2.33;1.60;;;;;;;29.99;44.13;99065.25;5132996;27;42740;-84
2021/07/16 16:11:56;;;;;;;1.50;1.37;;;;;;;29.76;44.90;99064.88;5132426;27;38920;-83
2021/07/16 16:14:23;;;;;;;1.37;1.27;;;;;;;29.44;45.11;99042.03;5115642;27;40735;-82
2021/07/16 16:16:51;;;;;;;1.83;1.47;;;;;;;29.40;44.98;99063.47;5132590;27;42659;-82
2021/07/16 16:19:21;;;;;;;1.17;1.07;;;;;;;29.29;45.23;99064.09;5115358;27;42207;-82
2021/07/16 16:21:49;;;;;;;1.50;1.40;;;;;;;29.21;45.47;99045.19;5132245;27;41897;-83
2021/07/16 16:24:17;;;;;;;1.43;1.13;;;;;;;29.31;44.84;99061.97;5132734;27;41575;-83
2021/07/16 16:37:56;;;;;;;1.37;1.27;;;;;;;30.45;43.07;99059.56;4947167;28;41401;-82
2021/07/16 16:41:00;;;;;;;1.10;1.00;;;;;;;30.64;41.96;99049.63;4909571;29;42786;-82
2021/07/16 16:44:15;;;;;;;;;;;;;;;;;;;;;
2021/07/16 17:01:27;;;;;;;1.63;1.53;;;;;;;30.07;44.04;99061.44;4981009;27;41478;-83
2021/07/16 17:07:58;;;;;;;1.47;1.20;;;;;;;30.11;43.93;99068.16;4989636;28;42951;-83
2021/07/16 17:10:45;;;;;;;1.70;1.60;;;;;;;30.18;43.97;99075.25;4985299;28;41784;-80
2021/07/16 17:17:21;;;;;;;1.37;1.27;;;;;;;30.03;44.53;99082.06;4876642;29;40715;-83
2021/07/16 17:20:05;;;;;;;2.07;1.47;;;;;;;30.03;44.63;99071.97;4894903;29;41835;-82
2021/07/16 17:23:18;;;;;;;1.13;1.03;;;;;;;30.17;44.38;99095.44;4893485;29;42508;-84
2021/07/16 17:26:13;;;;;;;1.60;1.50;;;;;;;29.84;44.71;99046.34;4960517;28;41909;-83
2021/07/16 17:28:44;;;;;;;1.53;1.43;;;;;;;30.01;44.79;99098.66;5085681;28;41764;-81
2021/07/16 17:31:58;;;;;;;1.17;1.10;;;;;;;29.67;45.87;99089.66;5093868;28;42132;-82
2021/07/16 17:35:03;;;;;;;1.83;1.73;;;;;;;29.41;46.31;99106.09;5093507;28;42964;-82
2021/07/16 17:40:43;;;;;;;1.60;1.50;;;;;;;28.40;47.78;99031.66;5055822;28;40946;-82
2021/07/16 17:43:48;;;;;;;1.20;1.10;;;;;;;28.12;48.08;99039.91;5008313;28;42068;-81
2021/07/16 17:53:01;;;;;;;1.70;1.60;;;;;;;27.53;50.09;99077.69;5102946;28;42690;-81
2021/07/16 17:55:47;;;;;;;1.73;1.63;;;;;;;27.42;50.77;99092.69;5093411;28;43152;-81
2021/07/16 17:59:03;;;;;;;2.10;1.40;;;;;;;27.01;51.03;99056.34;5067857;28;41277;-82
2021/07/16 18:01:38;;;;;;;1.57;1.47;;;;;;;26.85;51.50;99068.31;4971211;28;40028;-83
2021/07/16 18:04:46;;;;;;;1.50;1.40;;;;;;;26.60;51.72;99046.13;4995981;28;40467;-82
2021/07/16 18:07:29;;;;;;;1.43;1.33;;;;;;;26.58;52.35;99067.19;4995511;28;41823;-82
2021/07/16 18:28:21;;;;;;;1.40;1.30;;;;;;;25.65;54.52;99113.19;5117074;27;42021;-83
2021/07/16 18:51:59;;;;;;;2.00;1.50;;;;;;;24.95;55.99;99110.75;4991127;28;42715;-83
2021/07/16 18:55:29;;;;;;;2.87;2.17;;;;;;;25.06;56.26;99156.41;5046248;28;41141;-83
2021/07/16 18:58:28;;;;;;;1.57;1.30;;;;;;;25.12;56.11;99176.50;4967815;28;40791;-83
2021/07/16 19:01:33;;;;;;;1.53;1.43;;;;;;;25.03;56.65;99178.44;5043814;28;40543;-82
2021/07/16 19:11:27;;;;;;;1.97;1.87;;;;;;;24.77;57.60;99189.56;4953675;28;38565;-83
2021/07/16 19:18:06;;;;;;;1.40;1.23;;;;;;;24.54;57.63;99189.53;5087526;28;41969;-82
2021/07/16 19:28:29;;;;;;;1.47;1.37;;;;;;;24.30;58.62;99222.97;5069923;28;41641;-85
2021/07/16 20:09:56;;;;;;;1.30;1.20;;;;;;;22.61;61.57;99229.09;5074504;28;38359;-84
2021/07/16 20:12:38;;;;;;;1.57;1.47;;;;;;;22.37;62.18;99201.00;4972545;28;40500;-84
2021/07/16 20:22:30;;;;;;;1.20;1.10;;;;;;;22.17;62.40;99219.28;5006399;28;39207;-83
2021/07/16 20:25:38;;;;;;;1.47;1.33;;;;;;;22.26;63.39;99247.13;4974197;28;40582;-83
2021/07/16 20:28:29;;;;;;;1.50;1.13;;;;;;;22.04;63.21;99226.97;5045720;28;41770;-83
2021/07/16 20:31:18;;;;;;;1.50;1.40;;;;;;;21.99;63.49;99233.84;5032556;28;41155;-82
2021/07/16 20:33:46;;;;;;;1.33;1.23;;;;;;;21.83;63.19;99221.91;5032590;28;39567;-83
2021/07/16 20:36:22;;;;;;;1.40;1.30;;;;;;;21.91;63.32;99241.84;5033654;28;40598;-84
2021/07/16 20:39:10;;;;;;;1.40;1.30;;;;;;;21.88;63.55;99241.16;5033008;28;41567;-83
2021/07/16 20:44:55;;;;;;;1.70;1.43;;;;;;;21.96;63.08;99282.69;5066310;28;39928;-84
2021/07/16 20:47:40;;;;;;;1.70;1.20;;;;;;;22.02;63.25;99295.53;5049613;28;40620;-83
2021/07/16 20:50:11;;;;;;;1.87;1.77;;;;;;;21.58;63.39;99241.59;5034592;28;42527;-84
2021/07/16 20:52:51;;;;;;;1.90;1.63;;;;;;;21.68;63.73;99265.78;5070395;28;42242;-84
2021/07/16 20:55:19;;;;;;;1.67;1.13;;;;;;;21.78;64.19;99296.19;5036848;28;38772;-82
2021/07/16 20:58:15;;;;;;;1.37;1.27;;;;;;;21.79;64.07;99314.91;5037677;28;40869;-83
2021/07/16 21:01:16;;;;;;;1.07;0.97;;;;;;;21.56;64.18;99280.50;5013346;28;41963;-84
2021/07/16 21:04:15;;;;;;;1.17;1.07;;;;;;;21.61;64.36;99310.53;5014155;28;41229;-85
2021/07/16 21:09:45;;;;;;;1.50;1.10;;;;;;;21.19;64.29;99294.13;4996650;28;40738;-85
2021/07/16 21:12:13;;;;;;;1.43;1.33;;;;;;;21.43;64.61;99340.16;5014330;28;42209;-84
2021/07/16 21:17:34;;;;;;;1.50;1.40;;;;;;;21.33;65.03;99339.41;5026608;28;39138;-83
2021/07/16 21:20:10;;;;;;;1.10;1.00;;;;;;;21.01;65.09;99305.69;5026577;28;41754;-82
2021/07/16 21:22:38;;;;;;;1.10;1.00;;;;;;;21.19;65.13;99345.31;4993333;28;41978;-82
2021/07/16 21:25:07;;;;;;;1.33;1.17;;;;;;;21.02;65.11;99328.91;5026318;28;42394;-83
2021/07/16 21:27:40;;;;;;;1.37;1.23;;;;;;;20.85;65.39;99305.50;4994035;28;39980;-84
2021/07/16 21:30:09;;;;;;;1.30;1.20;;;;;;;20.99;65.47;99329.22;4994106;28;40702;-83
2021/07/16 21:32:40;;;;;;;1.37;1.27;;;;;;;21.03;65.76;99344.06;5034699;28;41719;-83